WEATHER DATA

YESTERDAY
Time Temp. Dewp. Hum. Wind dir Wind speed Wind gust Bar. 1h Prec. 24h Prec.
00:07 12.3 11.4 94 176 1.1 1.7 1010.9 0.0000 0.0000
00:17 12.2 11.3 94 177 1.1 2.5 1010.8 0.0000 0.0000
00:28 12.2 11.4 95 177 1.1 2.2 1010.7 0.0000 0.0000
00:39 12.2 11.4 95 175 1.1 2.2 1010.7 0.0000 0.0000
00:48 12.1 11.3 95 173 1.1 2.2 1010.7 0.0000 0.0000
00:57 12.1 11.3 95 168 1.4 2.8 1010.7 0.0000 0.0000
01:07 12 11.2 95 171 1.7 3.1 1010.6 0.0000 0.0000
01:19 12 11.4 96 176 1.1 2.2 1010.6 0.0000 0.0000
01:28 12 11.4 96 172 1.1 2.5 1010.5 0.0000 0.0000
01:38 11.9 11.3 96 167 1.4 2.5 1010.5 0.0000 0.0000
01:49 11.9 11.3 96 177 1.1 2.5 1010.5 0.0000 0.0000
01:58 11.9 11.3 96 191 0.8 1.4 1010.5 0.0000 0.0000
02:08 11.9 11.3 96 165 1.1 2.5 1010.4 0.0000 0.0000
02:19 11.9 11.3 96 168 1.1 2.2 1010.3 0.0000 0.0000
02:29 11.8 11.2 96 173 1.1 2.5 1010.3 0.0000 0.0000
02:39 11.8 11.2 96 184 0.8 2.2 1010.3 0.0000 0.0000
02:49 11.8 11.2 96 191 0.8 1.4 1010.2 0.0000 0.0000
02:59 11.8 11.3 97 180 0.8 1.7 1010.2 0.0000 0.0000
03:09 11.8 11.3 97 178 1.1 1.7 1010.2 0.0000 0.0000
03:19 11.8 11.3 97 183 1.1 1.7 1010.1 0.0000 0.0000
03:30 11.8 11.3 97 184 0.8 2.2 1010.1 0.0000 0.0000
03:39 11.8 11.3 97 187 0.8 1.7 1010 0.0000 0.0000
03:59 11.8 11.3 97 188 0.8 1.7 1009.9 0.0000 0.0000
04:10 11.8 11.3 97 183 1.1 1.7 1009.9 0.0000 0.0000
04:29 11.7 11.2 97 196 0.8 1.4 1009.7 0.0000 0.0000
05:00 11.7 11.2 97 196 0.8 1.4 1009.7 0.0000 0.0000
05:20 11.7 11.4 98 173 1.1 1.7 1009.6 0.0000 0.0000
05:30 11.6 11.3 98 177 1.1 2.2 1009.5 0.0000 0.0000
05:40 11.6 11.3 98 190 1.1 1.7 1009.6 0.0000 0.0000
05:51 11.7 11.4 98 196 0.8 1.4 1009.6 0.0000 0.0000
06:08 11.7 11.4 98 202 0.8 1.7 1009.5 0.0000 0.0000
06:12 11.7 11.4 98 184 0.8 1.7 1009.5 0.0000 0.0000
06:22 11.7 11.4 98 178 1.1 1.7 1009.5 0.0000 0.0000
06:32 11.7 11.4 98 190 0.8 1.7 1009.5 0.0000 0.0000
06:42 11.7 11.4 98 183 1.1 2.2 1009.5 0.0000 0.0000
06:52 11.8 11.5 98 181 1.1 1.7 1009.6 0.0000 0.0000
07:02 11.8 11.5 98 183 1.1 1.7 1009.6 0.0000 0.0000
07:13 11.8 11.6 99 185 0.8 1.7 1009.6 0.0000 0.0000
07:22 11.8 11.6 99 196 0.8 1.7 1009.7 0.0000 0.0000
07:32 11.8 11.6 99 183 0.8 1.7 1009.8 0.0000 0.0000
07:42 11.8 11.6 99 210 0.8 1.4 1009.8 0.0000 0.0000
07:53 11.8 11.6 99 200 1.1 1.7 1009.7 0.0000 0.0000
08:03 11.9 11.7 99 206 1.1 2.2 1009.8 0.0000 0.0000
08:13 12 11.8 99 206 1.4 1.7 1009.7 0.0000 0.0000
08:23 12 11.8 99 217 0.8 1.7 1009.8 0.0000 0.0000
08:33 12.1 12.1 100 223 1.1 2.2 1009.8 0.0000 0.0000
08:43 12.1 12.1 100 225 1.1 2.2 1009.9 0.0000 0.0000
08:53 12.2 12.2 100 225 1.1 2.2 1010 0.0000 0.0000
09:04 12.3 12.3 100 220 0.8 1.4 1010 0.0000 0.0000
09:13 12.3 12.3 100 242 1.1 2.2 1010.1 0.0000 0.0000
09:23 12.4 12.4 100 221 1.7 2.8 1010.1 0.0000 0.0000
09:34 12.4 12.4 100 223 1.4 2.2 1010.2 0.0000 0.0000
09:44 12.4 12.4 100 260 1.4 2.5 1010.3 0.0000 0.0000
09:54 12.4 12.4 100 270 1.1 2.5 1010.3 0.0000 0.0000
10:03 12.5 12.5 100 235 1.1 1.7 1010.4 0.0000 0.0000
10:14 12.7 12.7 100 256 1.1 2.2 1010.5 0.0000 0.0000
10:24 12.8 12.8 100 240 1.7 3.1 1010.5 0.0000 0.0000
10:34 13 13 100 243 1.7 3.1 1010.5 0.0000 0.0000
10:44 13.2 13 99 270 1.4 2.8 1010.6 0.0000 0.0000
10:54 13.4 13.2 99 256 1.4 2.8 1010.7 0.0000 0.0000
11:04 13.6 13.4 99 254 1.4 2.8 1010.7 0.0000 0.0000
11:14 13.8 13.5 98 247 1.7 3.1 1010.6 0.0000 0.0000
11:25 14.1 13.8 98 244 1.7 2.8 1010.7 0.0000 0.0000
11:35 14.5 13.9 96 260 1.7 2.8 1010.7 0.0000 0.0000
11:44 14.5 13.5 94 258 1.7 3.1 1010.7 0.0000 0.0000
11:55 14.5 13.4 93 270 1.7 3.1 1010.6 0.0000 0.0000
12:05 14.6 13.1 91 246 1.7 2.8 1010.6 0.0000 0.0000
12:15 14.9 13.3 90 244 2.5 3.6 1010.6 0.0000 0.0000
12:25 15 13 88 240 2.2 3.9 1010.7 0.0000 0.0000
12:35 15.2 12.9 86 213 2.2 3.1 1010.7 0.0000 0.0000
12:45 15.4 12.5 83 275 2.8 4.2 1010.7 0.0000 0.0000
12:55 15.5 12.4 82 270 2.5 4.2 1010.7 0.0000 0.0000
13:05 15.7 12.5 81 277 3.1 5.3 1010.6 0.0000 0.0000
13:16 15.8 11.4 75 287 3.6 5.3 1010.5 0.0000 0.0000
13:25 16 11.6 75 286 3.1 5 1010.6 0.0000 0.0000
13:35 16.1 11.5 74 270 2.8 4.2 1010.6 0.0000 0.0000
13:46 16.2 11.4 73 280 3.1 5.6 1010.6 0.0000 0.0000
13:56 16.4 11.3 72 281 3.6 5.8 1010.7 0.0000 0.0000
14:06 16.6 11.3 71 270 3.1 5 1010.7 0.0000 0.0000
14:16 16.8 11.5 71 274 2.8 5.3 1010.8 0.0000 0.0000
14:26 17 11.3 69 270 3.9 5.6 1010.8 0.0000 0.0000
14:36 17.1 11.2 68 284 3.6 5.3 1010.8 0.0000 0.0000
14:46 17.2 11.2 68 285 3.6 5.8 1010.8 0.0000 0.0000
14:56 17.4 11.4 68 286 3.1 4.2 1010.8 0.0000 0.0000
15:06 17.6 11.4 67 285 3.1 5.3 1010.8 0.0000 0.0000
15:16 17.7 11.3 66 273 3.6 5.3 1010.9 0.0000 0.0000
15:26 17.9 11.2 65 276 2.5 5.3 1010.8 0.0000 0.0000
15:37 17.9 11 64 277 3.6 5.3 1010.7 0.0000 0.0000
15:46 18 10.9 63 276 3.6 5.6 1010.7 0.0000 0.0000
15:56 18 10.4 61 290 3.9 5.3 1010.7 0.0000 0.0000
16:07 18.1 10.7 62 280 3.1 5.3 1010.7 0.0000 0.0000
16:17 18.1 10.7 62 273 3.1 4.4 1010.7 0.0000 0.0000
16:27 18.1 10.7 62 275 3.1 5.3 1010.7 0.0000 0.0000
16:37 18.1 10 59 289 3.9 5.6 1010.7 0.0000 0.0000
16:47 18 9.6 58 289 3.1 5 1010.7 0.0000 0.0000
16:57 18 9.4 57 295 3.1 5 1010.6 0.0000 0.0000
17:07 18 9.6 58 290 2.8 4.2 1010.6 0.0000 0.0000
17:18 18 10.1 60 288 3.6 5 1010.7 0.0000 0.0000
17:27 17.9 10.3 61 285 3.1 4.4 1010.7 0.0000 0.0000
17:37 17.8 10.4 62 292 3.1 4.2 1010.7 0.0000 0.0000
17:47 17.6 10.5 63 289 3.6 5 1010.7 0.0000 0.0000
17:58 17.4 10.3 63 289 2.8 4.2 1010.7 0.0000 0.0000
18:07 17.2 10.3 64 290 3.6 5.3 1010.9 0.0000 0.0000
18:17 17 10.6 66 289 3.1 4.2 1010.8 0.0000 0.0000
18:28 16.7 10.8 68 306 2.2 3.6 1010.9 0.0000 0.0000
18:38 16.5 10.8 69 305 1.7 2.5 1011 0.0000 0.0000
18:48 16.1 10.6 70 315 1.7 2.8 1011.1 0.0000 0.0000
18:58 15.7 10.5 71 305 1.4 2.2 1011.1 0.0000 0.0000
19:08 15.4 10.6 73 304 1.4 2.2 1011.2 0.0000 0.0000
19:18 15 10.8 76 303 1.4 2.2 1011.2 0.0000 0.0000
19:28 14.6 10.6 77 304 0.8 1.7 1011.3 0.0000 0.0000
19:39 14.4 10.8 79 270 0.3 1.4 1011.3 0.0000 0.0000
19:48 14.1 10.7 80 270 0.3 0.8 1011.3 0.0000 0.0000
19:58 13.7 10.5 81 270 0.3 0.8 1011.4 0.0000 0.0000
20:08 13.3 10.1 81 228 0.3 1.1 1011.4 0.0000 0.0000
20:19 13 10 82 270 0.3 0.8 1011.5 0.0000 0.0000
20:28 12.7 9.7 82 270 0.3 1.1 1011.6 0.0000 0.0000
20:38 12.4 9.6 83 270 0.3 1.1 1011.6 0.0000 0.0000
20:49 12 9.4 84 270 0.3 1.1 1011.7 0.0000 0.0000
20:59 11.8 9.4 85 270 0.3 1.1 1011.8 0.0000 0.0000
21:09 11.5 9.1 85 270 0.8 1.4 1011.8 0.0000 0.0000
21:19 11.3 9 86 254 0.8 1.4 1011.8 0.0000 0.0000
21:29 11 8.8 86 270 0.3 0.8 1011.8 0.0000 0.0000
21:39 10.8 8.7 87 270 0.3 1.1 1011.8 0.0000 0.0000
21:49 10.6 8.5 87 251 0.8 1.1 1011.7 0.0000 0.0000
22:00 10.4 8.5 88 270 0.3 1.1 1011.7 0.0000 0.0000
22:09 10.2 8.3 88 225 0.3 1.1 1011.7 0.0000 0.0000
22:29 9.9 8 88 270 0.3 1.1 1011.7 0.0000 0.0000
22:40 9.6 7.9 89 246 0.8 1.4 1011.7 0.0000 0.0000
22:59 9.2 7.6 90 254 1.1 1.7 1011.6 0.0000 0.0000
23:10 9.1 7.5 90 261 1.4 2.5 1011.6 0.0000 0.0000
23:30 9 8.1 94 249 2.2 2.8 1011.6 0.0000 0.0000
23:40 9 8.2 95 243 2.2 3.1 1011.5 0.0000 0.0000
23:50 8.9 8.1 95 235 2.2 2.8 1011.6 0.0000

DAY STATISTIC

2022-09-24
TEMPERATURE
AVERAGE
13.6
HIGH
18.1
16:07
LOW
8.9
23:50
PRESSURE
AVERAGE
1010.6
HIGH
1011.8
20:59
LOW
1009.5
05:30
DEWPOINT
AVERAGE
11.1
HIGH
13.9
11:35
LOW
7.5
23:10
HUMIDITY
AVERAGE
86
HIGH
100
08:33
LOW
57
16:57
WIND SPEED
AVERAGE
1.6
HIGH
3.9
14:26
WIND GUST
AVERAGE
2.8
HIGH
5.8
13:56
WIND DIRECTION
PREVAILING
W
44.8%
N
0.0
NE
0.0
E
0.0
SE
0.0
S
30.6
SW
18.7
W
44.8
NW
6.0
PRECIPITATION
RAIN HOUR
0.0
RAIN DAY
0.0
TEMPERATURE (°C)
LOW
8.9
HIGH
18.1
AVERAGE
13.6
PRESSURE (hpa)
LOW
1009.5
HIGH
1011.8
AVERAGE
1010.6
DEVICE